Lake City, AR (72437)

8:05 AM CDT on July 24, 2014 (GMT -0500)
Jonesboro Municipal (KJBR) Elev 262 ft | 35.83 °N, 90.65 °W | Change Station

Current weather conditions updated 12 minutes ago

Clear
Clear
70 °F
Feels Like 70 °F
N
6
Wind Variable Wind from NNE

Today is forecast to be Cooler than yesterday.

Today
High -- | Low -- °F
--% Chance of Precip.
Yesterday
High -- | Low -- °F
Precip. -- in
6:03 AM 8:12 PM
Waning Crescent, 5% visible
Pressure 30.08 in
Visibility 10.0 miles
Clouds Clear
Dew Point 57 °F
Humidity 63%
Rainfall 0.00 in
Snow Depth Not available.
UV 1 out of 12
Pollen 5.40 out of 12
Air Quality Not available.
Flu Activity Not available.
METAR KJBR 241253Z AUTO 02005KT 10SM CLR 21/14 A3009 RMK AO2 SLP185 T02110139

More Conditions Fewer Conditions

Pressure 30.08 in
Visibility 10.0 miles
Clouds Clear
Dew Point 57 °F
Humidity 63%
Rainfall 0.00 in
Snow Depth Not available.
UV 1 out of 12
Pollen 5.40 out of 12
Air Quality Not available.
Flu Activity Not available.
METAR KJBR 241253Z AUTO 02005KT 10SM CLR 21/14 A3009 RMK AO2 SLP185 T02110139

More Conditions Fewer Conditions

10-Day Weather Forecast

Almanac

Astronomy

Jul. 24, 2014 Rise Set
Actual Time 6:03 AM CDT 8:12 PM CDT
Civil Twilight 5:34 AM CDT 8:41 PM CDT
Nautical Twilight 4:59 AM CDT 9:16 PM CDT
Astronomical Twilight 4:21 AM CDT 9:54 PM CDT
Moon 4:10 AM CDT 6:28 PM CDT
Length of Visible Light 15h 06m
Length of Day
14h 09m
Tomorrow will be 1m 28s shorter.
Waning Crescent, 5% of the Moon is Illuminated
Today
Waning Crescent
Jul 26
New
Aug 3
First Quarter
Aug 10
Full
Aug 17
Last Quarter

Today's Extremes

State Highs State Lows

Community

WunderPhotos

Upload Photos

1,736,993 photos uploaded!

Nearby

Snow Depth

Station Depth Elevation
No new snow has been reported.

Earthquake Activity

City Distance Mag. Time & Date
No recent earthquake activity has been reported nearby.
Minimum magnitude displayed is 2.5.

Coastal Water Temperatures

Place Temperature
No Stations Reporting

Nearby Weather Stations

Station Location Temp. Dew Point Humidity Wind Precip. Elev Updated Type
MesoWest BETHEL , Brookland, AR 64 °F - - North  at  - 0.00 in / hr 288 ft 7:00 AM CDT MADIS
William White Subdivision, Paragould, AR 69.4 °F 57 °F 64% NNE  at  5.8 mph 0.00 in / hr 331 ft 8:05 AM CDT Rapid Fire
MesoWest JNSBRO , Jonesboro, AR 71 °F - - North  at  - 0.00 in / hr 285 ft 6:55 AM CDT MADIS
MesoWest HARRIS , Harrisburg, AR 67 °F - - North  at  - 0.00 in / hr 250 ft 6:30 AM CDT MADIS

Show More Stations Show Fewer Stations